• Join FlightAware (Why Join?)
  • Login
  • US Flag 
04:07AM EST


 

Airport Tracker/Info


-or-


 

Live Flight TrackerFlight Track Log ✈ SWA1742 ✈ 07-Apr-2014 ✈ KSJC - KSNA

Flight Track Log - Related Links

Times and Time Zones

All times are in EDT time to prevent confusion due to time zone crossing. See the SWA1742 flight status page for this flight to view local times or setup timezone preferences in your user account.

Time Position Orientation Groundspeed Altitude Reporting Facility
EDT Latitude Longitude Course Direction KTS MPH feet Rate Location/Type
10:30AM 37.4000 -121.9667 360° North 182 209 2,200  Level Northern Cal TRACON
10:31AM 37.4333 -121.9667 360° North 223 257 4,800 1,440 Climbing Northern Cal TRACON
10:32AM 37.4000 -121.9000 122° Southeast 236 272 5,000 1,560 Climbing Northern Cal TRACON
10:33AM 37.3667 -121.8167 117° Southeast 240 276 8,100 2,580 Climbing Northern Cal TRACON
10:34AM 37.3167 -121.7667 141° Southeast 288 331 10,300 2,400 Climbing Northern Cal TRACON
10:35AM 37.2500 -121.6833 135° Southeast 337 388 12,800 2,760 Climbing Northern Cal TRACON
10:36AM 37.1531 -121.5889 142° Southeast 355 409 17,000 3,000 Climbing Oakland Center
10:37AM 37.0689 -121.4972 139° Southeast 370 426 20,100 2,820 Climbing Oakland Center
10:38AM 36.9847 -121.4044 139° Southeast 397 457 22,900 2,460 Climbing Oakland Center
10:39AM 36.8958 -121.3094 139° Southeast 418 481 25,200 2,280 Climbing Oakland Center
10:40AM 36.7972 -121.2064 140° Southeast 439 505 27,600 2,160 Climbing Oakland Center
10:41AM 36.7022 -121.1019 139° Southeast 452 520 29,700 1,980 Climbing Oakland Center
10:42AM 36.6050 -120.9956 139° Southeast 459 528 31,700 1,800 Climbing Oakland Center
10:43AM 36.5047 -120.8878 139° Southeast 472 543 33,400 1,860 Climbing Oakland Center
10:44AM 36.3839 -120.7594 139° Southeast 474 545 35,600 1,860 Climbing Oakland Center
10:45AM 36.2836 -120.6528 139° Southeast 476 548 37,200 1,440 Climbing Oakland Center
10:46AM 36.1847 -120.5447 139° Southeast 475 547 38,600 1,140 Climbing Oakland Center
10:47AM 36.0828 -120.4369 139° Southeast 476 548 39,600 1,020 Climbing Oakland Center
10:49AM 35.9814 -120.3289 139° Southeast 478 550 40,700 660 Climbing Oakland Center
10:50AM 35.8789 -120.2222 140° Southeast 479 551 41,000 120 Climbing Oakland Center
10:51AM 35.7767 -120.1136 139° Southeast 479 551 41,000  Level Oakland Center
10:52AM 35.6747 -120.0061 139° Southeast 479 551 41,000  Level Oakland Center
10:53AM 35.5664 -119.9083 144° Southeast 479 551 41,000  Level Oakland Center
10:54AM 35.4558 -119.8139 145° Southeast 478 550 41,000  Level Oakland Center
10:55AM 35.3467 -119.7186 145° Southeast 479 551 41,000 -120 Level Oakland Center
10:56AM 35.2372 -119.6244 145° Southeast 479 551 40,800 -1,200 Descending Oakland Center
10:57AM 35.1292 -119.5331 145° Southeast 476 548 38,600 -2,400 Descending Oakland Center
10:58AM 35.0008 -119.4222 145° Southeast 473 544 35,500 -2,460 Descending Los Angeles Center
10:59AM 34.8928 -119.3306 145° Southeast 472 543 33,200 -1,680 Descending Los Angeles Center
11:00AM 34.7639 -119.2206 145° Southeast 471 542 32,100 -1,620 Descending Los Angeles Center
11:01AM 34.6539 -119.1278 145° Southeast 478 550 30,000 -2,220 Descending Los Angeles Center
11:02AM 34.5428 -119.0389 147° Southeast 464 534 27,600 -2,280 Descending Los Angeles Center
11:03AM 34.4397 -118.9519 145° Southeast 455 524 25,300 -2,280 Descending Los Angeles Center
11:04AM 34.3336 -118.8739 149° Southeast 444 511 23,000 -2,220 Descending Los Angeles Center
11:05AM 34.2200 -118.8308 163° South 428 493 20,800 -2,160 Descending Los Angeles Center
11:06AM 34.1125 -118.7908 163° South 407 468 18,600 -2,280 Descending Los Angeles Center
11:07AM 33.9950 -118.7481 163° South 388 447 16,100 -2,280 Descending Los Angeles Center
11:08AM 33.8897 -118.7108 164° South 366 421 14,000 -1,020 Descending Los Angeles Center
11:09AM 33.8006 -118.6783 163° South 347 399 14,000 -180 Level Los Angeles Center
11:10AM 33.7114 -118.6456 163° South 339 390 13,700 -660 Descending Los Angeles Center
11:11AM 33.6211 -118.6139 164° South 341 392 12,700 -1,080 Descending Los Angeles Center
11:12AM 33.5256 -118.5483 150° Southeast 339 390 11,500 -1,080 Descending Los Angeles Center
11:13AM 33.4522 -118.4844 144° Southeast 333 383 10,500 -960 Descending Los Angeles Center
11:14AM 33.4053 -118.4081 126° Southeast 303 349 9,600 -960 Descending Los Angeles Center
11:15AM 33.4403 -118.3289 62° Northeast 289 333 8,600 -1,200 Descending Los Angeles Center
11:16AM 33.4886 -118.2561 51° Northeast 286 329 7,200 -1,440 Descending Los Angeles Center
11:17AM 33.5458 -118.1706 51° Northeast 282 325 5,700 -1,080 Descending Los Angeles Center
11:19AM 33.5903 -118.1025 52° Northeast 272 313 5,000 -300 Descending Los Angeles Center
11:20AM 33.6333 -118.0500 45° Northeast 200 230 5,100  Climbing Southern California TRACON
11:21AM 33.6833 -118.0000 40° Northeast 196 226 5,100 -60 Level Southern California TRACON
11:22AM 33.7167 -117.9500 51° Northeast 197 227 5,000 -660 Descending Southern California TRACON
11:23AM 33.7667 -117.9167 29° Northeast 191 220 3,800 -1,080 Descending Southern California TRACON
11:24AM 33.7833 -117.8667 68° East 203 234 3,000 -900 Descending Southern California TRACON
11:25AM 33.7500 -117.8333 140° Southeast 185 213 2,100 -1,140 Descending Southern California TRACON
11:26AM 33.7000 -117.8500 195° South 143 165 700 -1,320 Descending Southern California TRACON
11:30AM 33.6757 -117.8682 132° Southeast  Level Estimated